sensor_id;sensor_type;location;lat;lon;timestamp;temperature;humidity
18321;DHT22;54904;54.350;18.664;2022-08-07T00:00:47;20.80;63.80
18321;DHT22;54904;54.350;18.664;2022-08-07T00:03:14;20.90;63.90
18321;DHT22;54904;54.350;18.664;2022-08-07T00:05:41;20.80;63.80
18321;DHT22;54904;54.350;18.664;2022-08-07T00:08:09;20.90;64.00
18321;DHT22;54904;54.350;18.664;2022-08-07T00:10:36;20.90;64.00
18321;DHT22;54904;54.350;18.664;2022-08-07T00:13:04;20.90;64.10
18321;DHT22;54904;54.350;18.664;2022-08-07T00:15:33;20.80;64.00
18321;DHT22;54904;54.350;18.664;2022-08-07T00:18:00;20.90;64.20
18321;DHT22;54904;54.350;18.664;2022-08-07T00:20:27;20.90;64.30
18321;DHT22;54904;54.350;18.664;2022-08-07T00:22:54;20.90;64.30
18321;DHT22;54904;54.350;18.664;2022-08-07T00:25:22;20.90;64.40
18321;DHT22;54904;54.350;18.664;2022-08-07T00:27:49;20.80;64.60
18321;DHT22;54904;54.350;18.664;2022-08-07T00:30:17;20.80;64.70
18321;DHT22;54904;54.350;18.664;2022-08-07T00:32:47;20.80;64.80
18321;DHT22;54904;54.350;18.664;2022-08-07T00:38:00;20.80;65.00
18321;DHT22;54904;54.350;18.664;2022-08-07T00:40:28;20.80;65.10
18321;DHT22;54904;54.350;18.664;2022-08-07T00:42:55;20.70;65.30
18321;DHT22;54904;54.350;18.664;2022-08-07T00:45:22;20.70;65.50
18321;DHT22;54904;54.350;18.664;2022-08-07T00:47:51;20.70;65.60
18321;DHT22;54904;54.350;18.664;2022-08-07T00:50:18;20.60;65.70
18321;DHT22;54904;54.350;18.664;2022-08-07T00:52:45;20.60;66.00
18321;DHT22;54904;54.350;18.664;2022-08-07T00:55:12;20.60;66.00
18321;DHT22;54904;54.350;18.664;2022-08-07T00:57:39;20.70;66.10
18321;DHT22;54904;54.350;18.664;2022-08-07T01:00:08;20.60;66.00
18321;DHT22;54904;54.350;18.664;2022-08-07T01:02:35;20.60;66.10
18321;DHT22;54904;54.350;18.664;2022-08-07T01:05:05;20.50;66.50
18321;DHT22;54904;54.350;18.664;2022-08-07T01:07:33;20.50;66.50
18321;DHT22;54904;54.350;18.664;2022-08-07T01:10:00;20.50;66.80
18321;DHT22;54904;54.350;18.664;2022-08-07T01:12:28;20.50;66.80
18321;DHT22;54904;54.350;18.664;2022-08-07T01:14:55;20.50;66.80
18321;DHT22;54904;54.350;18.664;2022-08-07T01:17:25;20.40;66.90
18321;DHT22;54904;54.350;18.664;2022-08-07T01:19:55;20.50;67.30
18321;DHT22;54904;54.350;18.664;2022-08-07T01:22:24;20.40;67.20
18321;DHT22;54904;54.350;18.664;2022-08-07T01:24:51;20.40;67.60
18321;DHT22;54904;54.350;18.664;2022-08-07T01:27:19;20.40;67.60
18321;DHT22;54904;54.350;18.664;2022-08-07T01:29:47;20.30;67.60
18321;DHT22;54904;54.350;18.664;2022-08-07T01:32:14;20.30;67.70
18321;DHT22;54904;54.350;18.664;2022-08-07T01:34:44;20.30;67.70
18321;DHT22;54904;54.350;18.664;2022-08-07T01:37:12;20.30;67.80
18321;DHT22;54904;54.350;18.664;2022-08-07T01:39:44;20.30;67.70
18321;DHT22;54904;54.350;18.664;2022-08-07T01:42:20;20.40;67.80
18321;DHT22;54904;54.350;18.664;2022-08-07T01:44:47;20.30;67.90
18321;DHT22;54904;54.350;18.664;2022-08-07T01:47:15;20.30;68.00
18321;DHT22;54904;54.350;18.664;2022-08-07T01:49:42;20.30;68.10
18321;DHT22;54904;54.350;18.664;2022-08-07T01:52:10;20.30;69.00
18321;DHT22;54904;54.350;18.664;2022-08-07T01:54:39;20.30;68.40
18321;DHT22;54904;54.350;18.664;2022-08-07T01:57:17;20.30;68.40
18321;DHT22;54904;54.350;18.664;2022-08-07T01:59:51;20.20;68.60
18321;DHT22;54904;54.350;18.664;2022-08-07T02:02:24;20.20;68.70
18321;DHT22;54904;54.350;18.664;2022-08-07T02:04:57;20.20;68.80
18321;DHT22;54904;54.350;18.664;2022-08-07T02:07:31;20.20;69.60
18321;DHT22;54904;54.350;18.664;2022-08-07T02:10:02;20.20;68.90
18321;DHT22;54904;54.350;18.664;2022-08-07T02:12:39;20.20;68.90
18321;DHT22;54904;54.350;18.664;2022-08-07T02:15:11;20.20;69.10
18321;DHT22;54904;54.350;18.664;2022-08-07T02:17:42;20.20;69.10
18321;DHT22;54904;54.350;18.664;2022-08-07T02:20:10;20.20;69.20
18321;DHT22;54904;54.350;18.664;2022-08-07T02:22:39;20.20;69.30
18321;DHT22;54904;54.350;18.664;2022-08-07T02:25:08;20.20;69.30
18321;DHT22;54904;54.350;18.664;2022-08-07T02:27:39;20.10;69.30
18321;DHT22;54904;54.350;18.664;2022-08-07T02:30:09;20.20;69.50
18321;DHT22;54904;54.350;18.664;2022-08-07T02:32:37;20.10;69.40
18321;DHT22;54904;54.350;18.664;2022-08-07T02:35:06;20.10;69.40
18321;DHT22;54904;54.350;18.664;2022-08-07T02:37:36;20.10;69.50
18321;DHT22;54904;54.350;18.664;2022-08-07T02:40:08;20.10;69.60
18321;DHT22;54904;54.350;18.664;2022-08-07T02:42:37;20.10;69.70
18321;DHT22;54904;54.350;18.664;2022-08-07T02:45:08;20.10;69.70
18321;DHT22;54904;54.350;18.664;2022-08-07T02:47:37;20.10;69.80
18321;DHT22;54904;54.350;18.664;2022-08-07T02:50:13;20.10;69.80
18321;DHT22;54904;54.350;18.664;2022-08-07T02:52:43;20.10;69.90
18321;DHT22;54904;54.350;18.664;2022-08-07T02:55:17;20.10;70.80
18321;DHT22;54904;54.350;18.664;2022-08-07T02:57:48;20.00;70.20
18321;DHT22;54904;54.350;18.664;2022-08-07T03:00:16;20.00;70.20
18321;DHT22;54904;54.350;18.664;2022-08-07T03:02:46;20.00;70.60
18321;DHT22;54904;54.350;18.664;2022-08-07T03:05:16;20.00;70.70
18321;DHT22;54904;54.350;18.664;2022-08-07T03:07:43;20.00;71.10
18321;DHT22;54904;54.350;18.664;2022-08-07T03:10:13;19.90;70.90
18321;DHT22;54904;54.350;18.664;2022-08-07T03:12:43;19.90;71.00
18321;DHT22;54904;54.350;18.664;2022-08-07T03:15:15;19.90;71.30
18321;DHT22;54904;54.350;18.664;2022-08-07T03:17:43;19.80;71.20
18321;DHT22;54904;54.350;18.664;2022-08-07T03:20:12;19.80;71.30
18321;DHT22;54904;54.350;18.664;2022-08-07T03:22:41;19.80;71.30
18321;DHT22;54904;54.350;18.664;2022-08-07T03:25:11;19.80;71.40
18321;DHT22;54904;54.350;18.664;2022-08-07T03:27:42;19.80;71.40
18321;DHT22;54904;54.350;18.664;2022-08-07T03:30:15;19.80;71.80
18321;DHT22;54904;54.350;18.664;2022-08-07T03:32:46;19.80;71.80
18321;DHT22;54904;54.350;18.664;2022-08-07T03:35:18;19.80;71.70
18321;DHT22;54904;54.350;18.664;2022-08-07T03:37:53;19.80;71.80
18321;DHT22;54904;54.350;18.664;2022-08-07T03:40:27;19.90;72.10
18321;DHT22;54904;54.350;18.664;2022-08-07T03:42:56;19.90;72.10
18321;DHT22;54904;54.350;18.664;2022-08-07T03:45:26;19.90;72.10
18321;DHT22;54904;54.350;18.664;2022-08-07T03:47:57;20.00;72.30
18321;DHT22;54904;54.350;18.664;2022-08-07T03:50:25;20.00;72.40
18321;DHT22;54904;54.350;18.664;2022-08-07T03:52:55;20.00;72.40
18321;DHT22;54904;54.350;18.664;2022-08-07T03:55:23;20.00;72.50
18321;DHT22;54904;54.350;18.664;2022-08-07T03:57:51;20.00;72.50
18321;DHT22;54904;54.350;18.664;2022-08-07T04:00:18;20.00;72.50
18321;DHT22;54904;54.350;18.664;2022-08-07T04:02:51;20.00;72.60
18321;DHT22;54904;54.350;18.664;2022-08-07T04:05:33;20.10;72.70
18321;DHT22;54904;54.350;18.664;2022-08-07T04:08:02;20.10;72.80
18321;DHT22;54904;54.350;18.664;2022-08-07T04:10:30;20.10;72.80
18321;DHT22;54904;54.350;18.664;2022-08-07T04:12:58;20.10;72.90
18321;DHT22;54904;54.350;18.664;2022-08-07T04:15:26;20.10;72.80
18321;DHT22;54904;54.350;18.664;2022-08-07T04:17:55;20.10;72.90
18321;DHT22;54904;54.350;18.664;2022-08-07T04:20:22;20.10;73.00
18321;DHT22;54904;54.350;18.664;2022-08-07T04:22:49;20.10;73.30
18321;DHT22;54904;54.350;18.664;2022-08-07T04:25:18;20.10;73.30
18321;DHT22;54904;54.350;18.664;2022-08-07T04:27:46;20.10;73.50
18321;DHT22;54904;54.350;18.664;2022-08-07T04:30:16;20.10;73.60
18321;DHT22;54904;54.350;18.664;2022-08-07T04:33:07;20.20;74.30
18321;DHT22;54904;54.350;18.664;2022-08-07T04:35:37;20.20;73.50
18321;DHT22;54904;54.350;18.664;2022-08-07T04:38:10;20.20;73.50
18321;DHT22;54904;54.350;18.664;2022-08-07T04:40:39;20.20;73.60
18321;DHT22;54904;54.350;18.664;2022-08-07T04:43:07;20.20;73.70
18321;DHT22;54904;54.350;18.664;2022-08-07T04:45:41;20.20;73.80
18321;DHT22;54904;54.350;18.664;2022-08-07T04:48:16;20.20;73.70
18321;DHT22;54904;54.350;18.664;2022-08-07T04:50:49;20.30;73.80
18321;DHT22;54904;54.350;18.664;2022-08-07T04:53:24;20.30;73.80
18321;DHT22;54904;54.350;18.664;2022-08-07T04:55:58;20.30;73.70
18321;DHT22;54904;54.350;18.664;2022-08-07T04:58:35;20.30;73.80
18321;DHT22;54904;54.350;18.664;2022-08-07T05:01:13;20.30;73.90
18321;DHT22;54904;54.350;18.664;2022-08-07T05:03:48;20.30;74.00
18321;DHT22;54904;54.350;18.664;2022-08-07T05:06:21;20.30;74.10
18321;DHT22;54904;54.350;18.664;2022-08-07T05:09:00;20.40;74.20
18321;DHT22;54904;54.350;18.664;2022-08-07T05:11:31;20.40;75.00
18321;DHT22;54904;54.350;18.664;2022-08-07T05:14:02;20.40;74.30
18321;DHT22;54904;54.350;18.664;2022-08-07T05:16:34;20.40;74.30
18321;DHT22;54904;54.350;18.664;2022-08-07T05:19:08;20.40;74.30
18321;DHT22;54904;54.350;18.664;2022-08-07T05:21:37;20.40;74.40
18321;DHT22;54904;54.350;18.664;2022-08-07T05:24:10;20.50;74.40
18321;DHT22;54904;54.350;18.664;2022-08-07T05:26:38;20.50;74.40
18321;DHT22;54904;54.350;18.664;2022-08-07T05:29:08;20.50;74.50
18321;DHT22;54904;54.350;18.664;2022-08-07T05:31:39;20.50;74.60
18321;DHT22;54904;54.350;18.664;2022-08-07T05:34:13;20.50;74.60
18321;DHT22;54904;54.350;18.664;2022-08-07T05:36:45;20.50;74.60
18321;DHT22;54904;54.350;18.664;2022-08-07T05:39:25;20.60;74.70
18321;DHT22;54904;54.350;18.664;2022-08-07T05:41:57;20.60;74.80
18321;DHT22;54904;54.350;18.664;2022-08-07T05:44:26;20.60;74.70
18321;DHT22;54904;54.350;18.664;2022-08-07T05:46:54;20.60;74.70
18321;DHT22;54904;54.350;18.664;2022-08-07T05:49:25;20.60;74.80
18321;DHT22;54904;54.350;18.664;2022-08-07T05:51:54;20.60;75.10
18321;DHT22;54904;54.350;18.664;2022-08-07T05:54:23;20.60;75.00
18321;DHT22;54904;54.350;18.664;2022-08-07T05:56:50;20.60;75.10
18321;DHT22;54904;54.350;18.664;2022-08-07T05:59:20;20.60;75.20
18321;DHT22;54904;54.350;18.664;2022-08-07T06:01:56;20.60;75.30
18321;DHT22;54904;54.350;18.664;2022-08-07T06:04:26;20.70;75.30
18321;DHT22;54904;54.350;18.664;2022-08-07T06:06:54;20.80;75.40
18321;DHT22;54904;54.350;18.664;2022-08-07T06:09:22;20.80;75.30
18321;DHT22;54904;54.350;18.664;2022-08-07T06:11:49;20.90;75.40
18321;DHT22;54904;54.350;18.664;2022-08-07T06:14:20;20.90;75.30
18321;DHT22;54904;54.350;18.664;2022-08-07T06:16:51;21.00;75.30
18321;DHT22;54904;54.350;18.664;2022-08-07T06:19:20;21.00;75.20
18321;DHT22;54904;54.350;18.664;2022-08-07T06:21:50;21.10;76.00
18321;DHT22;54904;54.350;18.664;2022-08-07T06:24:17;21.20;75.00
18321;DHT22;54904;54.350;18.664;2022-08-07T06:26:44;21.20;74.80
18321;DHT22;54904;54.350;18.664;2022-08-07T06:29:11;21.20;74.60
18321;DHT22;54904;54.350;18.664;2022-08-07T06:31:38;21.30;74.40
18321;DHT22;54904;54.350;18.664;2022-08-07T06:34:05;21.40;74.30
18321;DHT22;54904;54.350;18.664;2022-08-07T06:36:33;21.50;74.20
18321;DHT22;54904;54.350;18.664;2022-08-07T06:39:01;21.50;74.10
18321;DHT22;54904;54.350;18.664;2022-08-07T06:41:34;21.50;73.90
18321;DHT22;54904;54.350;18.664;2022-08-07T06:44:03;21.60;74.70
18321;DHT22;54904;54.350;18.664;2022-08-07T06:46:33;21.70;73.80
18321;DHT22;54904;54.350;18.664;2022-08-07T06:49:00;21.70;73.60
18321;DHT22;54904;54.350;18.664;2022-08-07T06:51:29;21.80;73.70
18321;DHT22;54904;54.350;18.664;2022-08-07T06:53:57;21.80;73.60
18321;DHT22;54904;54.350;18.664;2022-08-07T06:56:32;21.90;73.70
18321;DHT22;54904;54.350;18.664;2022-08-07T06:59:16;21.90;73.50
18321;DHT22;54904;54.350;18.664;2022-08-07T07:01:49;22.00;73.40
18321;DHT22;54904;54.350;18.664;2022-08-07T07:04:17;22.00;73.40
18321;DHT22;54904;54.350;18.664;2022-08-07T07:06:44;22.00;73.30
18321;DHT22;54904;54.350;18.664;2022-08-07T07:09:19;22.10;73.40
18321;DHT22;54904;54.350;18.664;2022-08-07T07:11:57;22.10;73.40
18321;DHT22;54904;54.350;18.664;2022-08-07T07:14:28;22.20;73.40
18321;DHT22;54904;54.350;18.664;2022-08-07T07:16:59;22.30;73.60
18321;DHT22;54904;54.350;18.664;2022-08-07T07:19:32;22.40;73.40
18321;DHT22;54904;54.350;18.664;2022-08-07T07:22:00;22.40;73.00
18321;DHT22;54904;54.350;18.664;2022-08-07T07:24:28;22.50;72.70
18321;DHT22;54904;54.350;18.664;2022-08-07T07:26:57;22.60;72.50
18321;DHT22;54904;54.350;18.664;2022-08-07T07:29:31;22.70;72.10
18321;DHT22;54904;54.350;18.664;2022-08-07T07:32:01;22.70;71.80
18321;DHT22;54904;54.350;18.664;2022-08-07T07:34:29;22.80;71.50
18321;DHT22;54904;54.350;18.664;2022-08-07T07:36:59;22.80;71.20
18321;DHT22;54904;54.350;18.664;2022-08-07T07:39:27;23.00;71.00
18321;DHT22;54904;54.350;18.664;2022-08-07T07:41:56;23.00;70.80
18321;DHT22;54904;54.350;18.664;2022-08-07T07:44:27;23.10;70.40
18321;DHT22;54904;54.350;18.664;2022-08-07T07:46:56;23.10;70.20
18321;DHT22;54904;54.350;18.664;2022-08-07T07:49:25;23.20;70.30
18321;DHT22;54904;54.350;18.664;2022-08-07T07:51:55;23.20;70.10
18321;DHT22;54904;54.350;18.664;2022-08-07T07:54:24;23.30;70.10
18321;DHT22;54904;54.350;18.664;2022-08-07T07:56:52;23.30;69.50
18321;DHT22;54904;54.350;18.664;2022-08-07T07:59:23;23.30;68.50
18321;DHT22;54904;54.350;18.664;2022-08-07T08:01:51;23.30;68.10
18321;DHT22;54904;54.350;18.664;2022-08-07T08:04:19;23.30;67.80
18321;DHT22;54904;54.350;18.664;2022-08-07T08:06:47;23.30;67.80
18321;DHT22;54904;54.350;18.664;2022-08-07T08:09:18;23.50;68.00
18321;DHT22;54904;54.350;18.664;2022-08-07T08:11:46;23.50;67.70
18321;DHT22;54904;54.350;18.664;2022-08-07T08:14:15;23.60;67.40
18321;DHT22;54904;54.350;18.664;2022-08-07T08:16:44;23.70;67.00
18321;DHT22;54904;54.350;18.664;2022-08-07T08:19:13;23.60;66.10
18321;DHT22;54904;54.350;18.664;2022-08-07T08:21:44;23.60;66.30
18321;DHT22;54904;54.350;18.664;2022-08-07T08:24:33;23.60;66.20
18321;DHT22;54904;54.350;18.664;2022-08-07T08:27:21;23.60;66.20
18321;DHT22;54904;54.350;18.664;2022-08-07T08:29:51;23.60;64.70
18321;DHT22;54904;54.350;18.664;2022-08-07T08:32:23;23.60;64.50
18321;DHT22;54904;54.350;18.664;2022-08-07T08:34:52;23.70;64.50
18321;DHT22;54904;54.350;18.664;2022-08-07T08:37:20;23.80;64.40
18321;DHT22;54904;54.350;18.664;2022-08-07T08:39:49;23.90;64.40
18321;DHT22;54904;54.350;18.664;2022-08-07T08:42:22;23.90;63.90
18321;DHT22;54904;54.350;18.664;2022-08-07T08:44:59;24.00;63.80
18321;DHT22;54904;54.350;18.664;2022-08-07T08:47:35;24.00;63.90
18321;DHT22;54904;54.350;18.664;2022-08-07T08:50:11;24.00;63.40
18321;DHT22;54904;54.350;18.664;2022-08-07T08:52:48;24.00;63.00
18321;DHT22;54904;54.350;18.664;2022-08-07T08:55:21;24.00;62.50
18321;DHT22;54904;54.350;18.664;2022-08-07T08:57:57;24.10;62.60
18321;DHT22;54904;54.350;18.664;2022-08-07T09:00:31;24.20;62.50
18321;DHT22;54904;54.350;18.664;2022-08-07T09:03:04;24.20;62.40
18321;DHT22;54904;54.350;18.664;2022-08-07T09:05:42;24.20;62.20
18321;DHT22;54904;54.350;18.664;2022-08-07T09:08:29;24.20;62.10
18321;DHT22;54904;54.350;18.664;2022-08-07T09:11:09;24.20;61.90
18321;DHT22;54904;54.350;18.664;2022-08-07T09:13:42;24.20;61.30
18321;DHT22;54904;54.350;18.664;2022-08-07T09:16:19;24.20;61.30
18321;DHT22;54904;54.350;18.664;2022-08-07T09:19:11;24.20;61.40
18321;DHT22;54904;54.350;18.664;2022-08-07T09:21:46;24.30;61.50
18321;DHT22;54904;54.350;18.664;2022-08-07T09:24:32;24.40;61.20
18321;DHT22;54904;54.350;18.664;2022-08-07T09:27:07;24.30;60.80
18321;DHT22;54904;54.350;18.664;2022-08-07T09:29:45;24.30;60.70
18321;DHT22;54904;54.350;18.664;2022-08-07T09:32:27;24.20;60.80
18321;DHT22;54904;54.350;18.664;2022-08-07T09:35:05;24.20;60.90
18321;DHT22;54904;54.350;18.664;2022-08-07T09:37:39;24.20;60.80
18321;DHT22;54904;54.350;18.664;2022-08-07T09:40:15;24.10;60.70
18321;DHT22;54904;54.350;18.664;2022-08-07T09:42:53;24.10;60.00
18321;DHT22;54904;54.350;18.664;2022-08-07T09:45:36;24.10;59.50
18321;DHT22;54904;54.350;18.664;2022-08-07T09:48:20;24.10;58.70
18321;DHT22;54904;54.350;18.664;2022-08-07T09:51:02;24.20;58.30
18321;DHT22;54904;54.350;18.664;2022-08-07T09:53:34;24.20;58.10
18321;DHT22;54904;54.350;18.664;2022-08-07T09:56:24;24.20;58.10
18321;DHT22;54904;54.350;18.664;2022-08-07T09:59:07;24.20;58.00
18321;DHT22;54904;54.350;18.664;2022-08-07T10:01:45;24.20;58.10
18321;DHT22;54904;54.350;18.664;2022-08-07T10:04:27;24.30;58.10
18321;DHT22;54904;54.350;18.664;2022-08-07T10:07:20;24.40;58.20
18321;DHT22;54904;54.350;18.664;2022-08-07T10:10:09;24.40;58.20
18321;DHT22;54904;54.350;18.664;2022-08-07T10:12:51;24.50;58.30
18321;DHT22;54904;54.350;18.664;2022-08-07T10:15:42;24.60;58.00
18321;DHT22;54904;54.350;18.664;2022-08-07T10:21:17;24.80;58.20
18321;DHT22;54904;54.350;18.664;2022-08-07T10:24:00;24.90;58.30
18321;DHT22;54904;54.350;18.664;2022-08-07T10:26:40;24.90;58.30
18321;DHT22;54904;54.350;18.664;2022-08-07T10:29:30;24.90;58.10
18321;DHT22;54904;54.350;18.664;2022-08-07T10:32:24;25.00;57.80
18321;DHT22;54904;54.350;18.664;2022-08-07T10:35:04;25.00;57.70
18321;DHT22;54904;54.350;18.664;2022-08-07T10:37:42;25.00;57.60
18321;DHT22;54904;54.350;18.664;2022-08-07T10:40:17;25.00;57.60
18321;DHT22;54904;54.350;18.664;2022-08-07T10:42:56;25.00;57.50
18321;DHT22;54904;54.350;18.664;2022-08-07T10:45:26;25.00;57.70
18321;DHT22;54904;54.350;18.664;2022-08-07T10:48:07;25.00;58.10
18321;DHT22;54904;54.350;18.664;2022-08-07T10:50:42;24.90;59.80
18321;DHT22;54904;54.350;18.664;2022-08-07T10:53:18;24.70;61.60
18321;DHT22;54904;54.350;18.664;2022-08-07T10:55:59;24.50;62.50
18321;DHT22;54904;54.350;18.664;2022-08-07T10:58:41;24.40;63.60
18321;DHT22;54904;54.350;18.664;2022-08-07T11:01:28;24.30;63.70
18321;DHT22;54904;54.350;18.664;2022-08-07T11:04:02;24.30;64.10
18321;DHT22;54904;54.350;18.664;2022-08-07T11:06:49;24.20;63.90
18321;DHT22;54904;54.350;18.664;2022-08-07T11:09:22;24.20;64.80
18321;DHT22;54904;54.350;18.664;2022-08-07T11:11:55;24.20;64.50
18321;DHT22;54904;54.350;18.664;2022-08-07T11:14:27;24.20;64.80
18321;DHT22;54904;54.350;18.664;2022-08-07T11:17:00;24.10;64.60
18321;DHT22;54904;54.350;18.664;2022-08-07T11:19:35;24.10;64.70
18321;DHT22;54904;54.350;18.664;2022-08-07T11:22:08;24.10;64.80
18321;DHT22;54904;54.350;18.664;2022-08-07T11:24:40;24.00;64.50
18321;DHT22;54904;54.350;18.664;2022-08-07T11:27:12;24.00;64.00
18321;DHT22;54904;54.350;18.664;2022-08-07T11:29:58;24.00;63.80
18321;DHT22;54904;54.350;18.664;2022-08-07T11:32:33;24.00;63.80
18321;DHT22;54904;54.350;18.664;2022-08-07T11:35:06;24.10;63.80
18321;DHT22;54904;54.350;18.664;2022-08-07T11:37:51;24.20;63.90
18321;DHT22;54904;54.350;18.664;2022-08-07T11:40:28;24.40;63.60
18321;DHT22;54904;54.350;18.664;2022-08-07T11:43:05;24.60;63.40
18321;DHT22;54904;54.350;18.664;2022-08-07T11:45:46;24.70;62.50
18321;DHT22;54904;54.350;18.664;2022-08-07T11:48:28;24.70;62.20
18321;DHT22;54904;54.350;18.664;2022-08-07T11:51:12;24.80;62.00
18321;DHT22;54904;54.350;18.664;2022-08-07T11:53:49;24.70;62.60
18321;DHT22;54904;54.350;18.664;2022-08-07T11:56:31;24.70;63.30
18321;DHT22;54904;54.350;18.664;2022-08-07T11:59:11;24.70;63.50
18321;DHT22;54904;54.350;18.664;2022-08-07T12:01:47;24.70;63.40
18321;DHT22;54904;54.350;18.664;2022-08-07T12:04:34;24.70;63.30
18321;DHT22;54904;54.350;18.664;2022-08-07T12:07:12;24.60;63.10
18321;DHT22;54904;54.350;18.664;2022-08-07T12:09:47;24.70;63.20
18321;DHT22;54904;54.350;18.664;2022-08-07T12:12:18;24.70;63.10
18321;DHT22;54904;54.350;18.664;2022-08-07T12:14:55;24.60;63.10
18321;DHT22;54904;54.350;18.664;2022-08-07T12:17:39;24.60;63.80
18321;DHT22;54904;54.350;18.664;2022-08-07T12:20:11;24.50;64.40
18321;DHT22;54904;54.350;18.664;2022-08-07T12:23:00;24.40;64.90
18321;DHT22;54904;54.350;18.664;2022-08-07T12:25:38;24.40;65.40
18321;DHT22;54904;54.350;18.664;2022-08-07T12:28:26;24.30;65.40
18321;DHT22;54904;54.350;18.664;2022-08-07T12:31:00;24.20;65.30
18321;DHT22;54904;54.350;18.664;2022-08-07T12:33:30;24.10;65.40
18321;DHT22;54904;54.350;18.664;2022-08-07T12:35:59;24.00;65.70
18321;DHT22;54904;54.350;18.664;2022-08-07T12:38:27;24.00;66.00
18321;DHT22;54904;54.350;18.664;2022-08-07T12:40:56;24.00;66.30
18321;DHT22;54904;54.350;18.664;2022-08-07T12:43:29;24.10;66.90
18321;DHT22;54904;54.350;18.664;2022-08-07T12:46:17;24.20;66.90
18321;DHT22;54904;54.350;18.664;2022-08-07T12:48:55;24.30;67.20
18321;DHT22;54904;54.350;18.664;2022-08-07T12:51:25;24.20;67.20
18321;DHT22;54904;54.350;18.664;2022-08-07T12:53:59;24.20;67.10
18321;DHT22;54904;54.350;18.664;2022-08-07T12:56:30;24.10;66.90
18321;DHT22;54904;54.350;18.664;2022-08-07T12:59:02;24.10;67.10
18321;DHT22;54904;54.350;18.664;2022-08-07T13:01:39;24.10;67.20
18321;DHT22;54904;54.350;18.664;2022-08-07T13:04:27;24.20;67.50
18321;DHT22;54904;54.350;18.664;2022-08-07T13:07:13;24.20;67.30
18321;DHT22;54904;54.350;18.664;2022-08-07T13:09:58;24.30;67.30
18321;DHT22;54904;54.350;18.664;2022-08-07T13:12:32;24.40;67.30
18321;DHT22;54904;54.350;18.664;2022-08-07T13:15:12;24.40;67.40
18321;DHT22;54904;54.350;18.664;2022-08-07T13:17:55;24.50;67.30
18321;DHT22;54904;54.350;18.664;2022-08-07T13:20:33;24.50;67.00
18321;DHT22;54904;54.350;18.664;2022-08-07T13:23:06;24.50;66.90
18321;DHT22;54904;54.350;18.664;2022-08-07T13:25:37;24.40;67.30
18321;DHT22;54904;54.350;18.664;2022-08-07T13:28:12;24.50;66.50
18321;DHT22;54904;54.350;18.664;2022-08-07T13:30:51;24.50;66.20
18321;DHT22;54904;54.350;18.664;2022-08-07T13:33:26;24.40;66.30
18321;DHT22;54904;54.350;18.664;2022-08-07T13:35:58;24.50;66.50
18321;DHT22;54904;54.350;18.664;2022-08-07T13:38:33;24.50;67.40
18321;DHT22;54904;54.350;18.664;2022-08-07T13:41:09;24.50;66.60
18321;DHT22;54904;54.350;18.664;2022-08-07T13:43:41;24.60;66.50
18321;DHT22;54904;54.350;18.664;2022-08-07T13:46:12;24.60;66.40
18321;DHT22;54904;54.350;18.664;2022-08-07T13:48:44;24.70;66.20
18321;DHT22;54904;54.350;18.664;2022-08-07T13:51:13;24.70;66.00
18321;DHT22;54904;54.350;18.664;2022-08-07T13:53:41;24.80;66.00
18321;DHT22;54904;54.350;18.664;2022-08-07T13:56:16;24.90;66.10
18321;DHT22;54904;54.350;18.664;2022-08-07T13:58:45;24.90;65.80
18321;DHT22;54904;54.350;18.664;2022-08-07T14:01:33;25.00;65.60
18321;DHT22;54904;54.350;18.664;2022-08-07T14:04:07;24.90;65.50
18321;DHT22;54904;54.350;18.664;2022-08-07T14:06:36;24.90;65.60
18321;DHT22;54904;54.350;18.664;2022-08-07T14:11:41;25.00;65.70
18321;DHT22;54904;54.350;18.664;2022-08-07T14:14:11;24.90;65.50
18321;DHT22;54904;54.350;18.664;2022-08-07T14:16:42;24.90;65.20
18321;DHT22;54904;54.350;18.664;2022-08-07T14:19:16;24.90;65.40
18321;DHT22;54904;54.350;18.664;2022-08-07T14:21:46;24.80;65.40
18321;DHT22;54904;54.350;18.664;2022-08-07T14:24:21;24.80;65.40
18321;DHT22;54904;54.350;18.664;2022-08-07T14:26:53;24.70;65.10
18321;DHT22;54904;54.350;18.664;2022-08-07T14:29:24;24.70;65.00
18321;DHT22;54904;54.350;18.664;2022-08-07T14:31:53;24.60;65.50
18321;DHT22;54904;54.350;18.664;2022-08-07T14:34:23;24.50;64.60
18321;DHT22;54904;54.350;18.664;2022-08-07T14:36:51;24.50;64.70
18321;DHT22;54904;54.350;18.664;2022-08-07T14:39:19;24.40;64.80
18321;DHT22;54904;54.350;18.664;2022-08-07T14:41:49;24.40;65.10
18321;DHT22;54904;54.350;18.664;2022-08-07T14:44:19;24.40;65.30
18321;DHT22;54904;54.350;18.664;2022-08-07T14:46:47;24.40;65.30
18321;DHT22;54904;54.350;18.664;2022-08-07T14:49:16;24.40;65.00
18321;DHT22;54904;54.350;18.664;2022-08-07T14:51:46;24.40;65.00
18321;DHT22;54904;54.350;18.664;2022-08-07T14:54:16;24.30;64.90
18321;DHT22;54904;54.350;18.664;2022-08-07T14:56:46;24.30;64.90
18321;DHT22;54904;54.350;18.664;2022-08-07T14:59:14;24.30;65.10
18321;DHT22;54904;54.350;18.664;2022-08-07T15:01:45;24.30;65.30
18321;DHT22;54904;54.350;18.664;2022-08-07T15:04:13;24.20;66.10
18321;DHT22;54904;54.350;18.664;2022-08-07T15:06:42;24.20;65.40
18321;DHT22;54904;54.350;18.664;2022-08-07T15:09:15;24.10;65.50
18321;DHT22;54904;54.350;18.664;2022-08-07T15:11:48;24.10;65.60
18321;DHT22;54904;54.350;18.664;2022-08-07T15:14:21;24.10;65.70
18321;DHT22;54904;54.350;18.664;2022-08-07T15:16:52;24.10;65.80
18321;DHT22;54904;54.350;18.664;2022-08-07T15:19:23;24.10;66.00
18321;DHT22;54904;54.350;18.664;2022-08-07T15:21:52;24.00;65.90
18321;DHT22;54904;54.350;18.664;2022-08-07T15:24:29;24.00;66.00
18321;DHT22;54904;54.350;18.664;2022-08-07T15:27:02;24.00;66.10
18321;DHT22;54904;54.350;18.664;2022-08-07T15:29:33;24.00;66.30
18321;DHT22;54904;54.350;18.664;2022-08-07T15:32:02;24.00;66.50
18321;DHT22;54904;54.350;18.664;2022-08-07T15:34:34;23.90;66.50
18321;DHT22;54904;54.350;18.664;2022-08-07T15:37:04;23.90;66.60
18321;DHT22;54904;54.350;18.664;2022-08-07T15:39:38;23.90;66.70
18321;DHT22;54904;54.350;18.664;2022-08-07T15:42:06;23.80;67.00
18321;DHT22;54904;54.350;18.664;2022-08-07T15:44:45;23.80;67.30
18321;DHT22;54904;54.350;18.664;2022-08-07T15:47:14;23.70;67.40
18321;DHT22;54904;54.350;18.664;2022-08-07T15:49:47;23.60;67.50
18321;DHT22;54904;54.350;18.664;2022-08-07T15:52:18;23.60;67.80
18321;DHT22;54904;54.350;18.664;2022-08-07T15:54:48;23.60;68.30
18321;DHT22;54904;54.350;18.664;2022-08-07T15:57:23;23.60;68.00